sensor_id;sensor_type;location;lat;lon;timestamp;pressure;altitude;pressure_sealevel;temperature;humidity
11525;BME280;5819;49.648;8.330;2023-01-25T00:01:43;102293.41;;;2.40;100.00
11525;BME280;5819;49.648;8.330;2023-01-25T00:04:11;102286.38;;;2.33;100.00
11525;BME280;5819;49.648;8.330;2023-01-25T00:06:39;102290.28;;;2.16;100.00
11525;BME280;5819;49.648;8.330;2023-01-25T00:09:08;102286.09;;;2.19;100.00
11525;BME280;5819;49.648;8.330;2023-01-25T00:11:36;102281.94;;;2.24;100.00
11525;BME280;5819;49.648;8.330;2023-01-25T00:14:05;102283.63;;;2.25;100.00
11525;BME280;5819;49.648;8.330;2023-01-25T00:16:34;102286.84;;;2.17;100.00
11525;BME280;5819;49.648;8.330;2023-01-25T00:19:04;102281.59;;;2.11;100.00
11525;BME280;5819;49.648;8.330;2023-01-25T00:21:36;102285.91;;;2.12;100.00
11525;BME280;5819;49.648;8.330;2023-01-25T00:24:09;102278.50;;;2.25;100.00
11525;BME280;5819;49.648;8.330;2023-01-25T00:26:42;102275.13;;;2.26;100.00
11525;BME280;5819;49.648;8.330;2023-01-25T00:29:13;102272.56;;;2.26;100.00
11525;BME280;5819;49.648;8.330;2023-01-25T00:38:37;102270.91;;;2.30;100.00
11525;BME280;5819;49.648;8.330;2023-01-25T00:41:08;102268.06;;;2.16;100.00
11525;BME280;5819;49.648;8.330;2023-01-25T00:43:39;102269.84;;;2.20;100.00
11525;BME280;5819;49.648;8.330;2023-01-25T00:46:08;102264.63;;;2.16;100.00
11525;BME280;5819;49.648;8.330;2023-01-25T00:48:37;102257.22;;;2.29;100.00
11525;BME280;5819;49.648;8.330;2023-01-25T00:51:04;102251.75;;;2.14;100.00
11525;BME280;5819;49.648;8.330;2023-01-25T00:53:33;102257.97;;;2.24;100.00
11525;BME280;5819;49.648;8.330;2023-01-25T00:56:01;102251.09;;;2.23;100.00
11525;BME280;5819;49.648;8.330;2023-01-25T00:58:29;102255.97;;;2.12;100.00
11525;BME280;5819;49.648;8.330;2023-01-25T01:00:57;102254.28;;;2.52;100.00
11525;BME280;5819;49.648;8.330;2023-01-25T01:03:26;102253.16;;;2.39;100.00
11525;BME280;5819;49.648;8.330;2023-01-25T01:09:11;102252.13;;;2.31;100.00
11525;BME280;5819;49.648;8.330;2023-01-25T01:11:39;102250.22;;;2.22;100.00
11525;BME280;5819;49.648;8.330;2023-01-25T01:21:32;102251.03;;;2.20;100.00
11525;BME280;5819;49.648;8.330;2023-01-25T01:24:01;102251.13;;;2.24;100.00
11525;BME280;5819;49.648;8.330;2023-01-25T01:26:29;102249.44;;;2.26;100.00
11525;BME280;5819;49.648;8.330;2023-01-25T01:28:57;102246.66;;;2.16;100.00
11525;BME280;5819;49.648;8.330;2023-01-25T01:31:25;102254.31;;;2.14;100.00
11525;BME280;5819;49.648;8.330;2023-01-25T01:34:05;102255.88;;;2.08;100.00
11525;BME280;5819;49.648;8.330;2023-01-25T01:36:34;102253.53;;;2.18;100.00
11525;BME280;5819;49.648;8.330;2023-01-25T01:39:02;102249.56;;;2.31;100.00
11525;BME280;5819;49.648;8.330;2023-01-25T01:41:30;102253.72;;;2.26;100.00
11525;BME280;5819;49.648;8.330;2023-01-25T01:43:58;102242.34;;;2.15;100.00
11525;BME280;5819;49.648;8.330;2023-01-25T01:46:28;102241.41;;;2.13;100.00
11525;BME280;5819;49.648;8.330;2023-01-25T01:49:02;102234.41;;;2.43;100.00
11525;BME280;5819;49.648;8.330;2023-01-25T01:51:42;102233.31;;;2.32;100.00
11525;BME280;5819;49.648;8.330;2023-01-25T01:54:20;102230.97;;;2.43;100.00
11525;BME280;5819;49.648;8.330;2023-01-25T01:56:54;102233.00;;;2.18;100.00
11525;BME280;5819;49.648;8.330;2023-01-25T01:59:27;102232.06;;;2.15;100.00
11525;BME280;5819;49.648;8.330;2023-01-25T02:01:57;102227.00;;;2.18;100.00
11525;BME280;5819;49.648;8.330;2023-01-25T02:04:26;102227.75;;;2.14;100.00
11525;BME280;5819;49.648;8.330;2023-01-25T02:07:01;102233.84;;;2.17;100.00
11525;BME280;5819;49.648;8.330;2023-01-25T02:09:33;102229.50;;;2.15;100.00
11525;BME280;5819;49.648;8.330;2023-01-25T02:12:04;102227.81;;;2.15;100.00
11525;BME280;5819;49.648;8.330;2023-01-25T02:14:33;102228.56;;;2.11;100.00
11525;BME280;5819;49.648;8.330;2023-01-25T02:17:02;102225.03;;;2.06;100.00
11525;BME280;5819;49.648;8.330;2023-01-25T02:19:42;102229.41;;;2.10;100.00
11525;BME280;5819;49.648;8.330;2023-01-25T02:22:19;102227.31;;;2.31;100.00
11525;BME280;5819;49.648;8.330;2023-01-25T02:24:59;102234.97;;;2.28;100.00
11525;BME280;5819;49.648;8.330;2023-01-25T02:27:30;102235.63;;;2.21;100.00
11525;BME280;5819;49.648;8.330;2023-01-25T02:29:58;102233.84;;;2.17;100.00
11525;BME280;5819;49.648;8.330;2023-01-25T02:32:26;102234.50;;;2.09;100.00
11525;BME280;5819;49.648;8.330;2023-01-25T02:34:54;102238.25;;;2.23;100.00
11525;BME280;5819;49.648;8.330;2023-01-25T02:37:22;102224.59;;;2.25;100.00
11525;BME280;5819;49.648;8.330;2023-01-25T02:39:50;102222.69;;;2.15;100.00
11525;BME280;5819;49.648;8.330;2023-01-25T02:42:19;102221.16;;;2.25;100.00
11525;BME280;5819;49.648;8.330;2023-01-25T02:44:47;102225.44;;;2.24;100.00
11525;BME280;5819;49.648;8.330;2023-01-25T02:47:17;102222.63;;;2.14;100.00
11525;BME280;5819;49.648;8.330;2023-01-25T02:49:46;102224.28;;;2.10;100.00
11525;BME280;5819;49.648;8.330;2023-01-25T02:52:13;102206.34;;;2.13;100.00
11525;BME280;5819;49.648;8.330;2023-01-25T02:54:41;102212.34;;;2.12;100.00
11525;BME280;5819;49.648;8.330;2023-01-25T02:57:09;102216.53;;;2.09;100.00
11525;BME280;5819;49.648;8.330;2023-01-25T02:59:43;102219.09;;;2.09;100.00
11525;BME280;5819;49.648;8.330;2023-01-25T03:02:13;102212.16;;;2.05;100.00
11525;BME280;5819;49.648;8.330;2023-01-25T03:04:42;102211.34;;;2.06;100.00
11525;BME280;5819;49.648;8.330;2023-01-25T03:07:11;102208.75;;;2.06;100.00
11525;BME280;5819;49.648;8.330;2023-01-25T03:09:40;102219.78;;;2.02;100.00
11525;BME280;5819;49.648;8.330;2023-01-25T03:12:08;102213.56;;;2.29;100.00
11525;BME280;5819;49.648;8.330;2023-01-25T03:14:38;102214.09;;;2.15;100.00
11525;BME280;5819;49.648;8.330;2023-01-25T03:17:09;102209.69;;;2.09;100.00
11525;BME280;5819;49.648;8.330;2023-01-25T03:19:37;102213.13;;;2.08;100.00
11525;BME280;5819;49.648;8.330;2023-01-25T03:22:05;102204.56;;;2.09;100.00
11525;BME280;5819;49.648;8.330;2023-01-25T03:24:33;102203.13;;;2.20;100.00
11525;BME280;5819;49.648;8.330;2023-01-25T03:27:02;102205.41;;;2.08;100.00
11525;BME280;5819;49.648;8.330;2023-01-25T03:29:46;102207.34;;;2.18;100.00
11525;BME280;5819;49.648;8.330;2023-01-25T03:32:22;102206.09;;;2.01;100.00
11525;BME280;5819;49.648;8.330;2023-01-25T03:34:50;102201.66;;;1.94;100.00
11525;BME280;5819;49.648;8.330;2023-01-25T03:37:19;102202.16;;;2.15;100.00
11525;BME280;5819;49.648;8.330;2023-01-25T03:39:48;102196.69;;;2.02;100.00
11525;BME280;5819;49.648;8.330;2023-01-25T03:42:18;102196.69;;;2.02;100.00
11525;BME280;5819;49.648;8.330;2023-01-25T03:44:50;102196.56;;;1.96;100.00
11525;BME280;5819;49.648;8.330;2023-01-25T03:47:18;102197.50;;;1.99;100.00
11525;BME280;5819;49.648;8.330;2023-01-25T03:49:47;102193.25;;;2.01;100.00
11525;BME280;5819;49.648;8.330;2023-01-25T03:52:17;102199.03;;;1.91;100.00
11525;BME280;5819;49.648;8.330;2023-01-25T03:54:46;102196.63;;;1.99;100.00
11525;BME280;5819;49.648;8.330;2023-01-25T03:57:14;102201.44;;;1.83;100.00
11525;BME280;5819;49.648;8.330;2023-01-25T03:59:56;102199.63;;;1.79;100.00
11525;BME280;5819;49.648;8.330;2023-01-25T04:02:25;102194.25;;;2.06;100.00
11525;BME280;5819;49.648;8.330;2023-01-25T04:04:55;102196.56;;;1.96;100.00
11525;BME280;5819;49.648;8.330;2023-01-25T04:07:25;102204.34;;;1.99;100.00
11525;BME280;5819;49.648;8.330;2023-01-25T04:09:53;102200.59;;;1.84;100.00
11525;BME280;5819;49.648;8.330;2023-01-25T04:12:22;102190.41;;;1.87;100.00
11525;BME280;5819;49.648;8.330;2023-01-25T04:14:50;102192.09;;;1.87;100.00
11525;BME280;5819;49.648;8.330;2023-01-25T04:17:21;102188.88;;;1.97;100.00
11525;BME280;5819;49.648;8.330;2023-01-25T04:19:57;102187.66;;;1.80;100.00
11525;BME280;5819;49.648;8.330;2023-01-25T04:22:33;102190.13;;;1.77;100.00
11525;BME280;5819;49.648;8.330;2023-01-25T04:25:03;102192.66;;;1.74;100.00
11525;BME280;5819;49.648;8.330;2023-01-25T04:31:05;102182.59;;;1.83;100.00
11525;BME280;5819;49.648;8.330;2023-01-25T04:33:38;102179.22;;;1.85;100.00
11525;BME280;5819;49.648;8.330;2023-01-25T04:36:09;102184.19;;;1.76;100.00
11525;BME280;5819;49.648;8.330;2023-01-25T04:38:37;102174.91;;;1.83;100.00
11525;BME280;5819;49.648;8.330;2023-01-25T04:41:05;102169.63;;;1.77;100.00
11525;BME280;5819;49.648;8.330;2023-01-25T04:43:33;102174.78;;;1.78;100.00
11525;BME280;5819;49.648;8.330;2023-01-25T04:46:07;102181.59;;;1.76;100.00
11525;BME280;5819;49.648;8.330;2023-01-25T04:48:36;102179.81;;;1.72;100.00
11525;BME280;5819;49.648;8.330;2023-01-25T04:51:05;102180.16;;;1.87;100.00
11525;BME280;5819;49.648;8.330;2023-01-25T04:53:36;102181.19;;;1.96;100.00
11525;BME280;5819;49.648;8.330;2023-01-25T04:56:05;102182.44;;;1.77;100.00
11525;BME280;5819;49.648;8.330;2023-01-25T04:58:42;102180.19;;;1.91;100.00
11525;BME280;5819;49.648;8.330;2023-01-25T05:01:10;102166.84;;;2.05;100.00
11525;BME280;5819;49.648;8.330;2023-01-25T05:03:38;102176.31;;;1.70;100.00
11525;BME280;5819;49.648;8.330;2023-01-25T05:06:15;102170.97;;;1.61;100.00
11525;BME280;5819;49.648;8.330;2023-01-25T05:08:45;102171.19;;;1.70;100.00
11525;BME280;5819;49.648;8.330;2023-01-25T05:11:13;102163.44;;;1.67;100.00
11525;BME280;5819;49.648;8.330;2023-01-25T05:13:47;102165.09;;;1.65;100.00
11525;BME280;5819;49.648;8.330;2023-01-25T05:16:20;102158.25;;;1.64;100.00
11525;BME280;5819;49.648;8.330;2023-01-25T05:18:48;102157.38;;;1.65;100.00
11525;BME280;5819;49.648;8.330;2023-01-25T05:21:20;102147.97;;;1.64;100.00
11525;BME280;5819;49.648;8.330;2023-01-25T05:24:08;102147.19;;;1.67;100.00
11525;BME280;5819;49.648;8.330;2023-01-25T05:26:36;102141.41;;;1.75;100.00
11525;BME280;5819;49.648;8.330;2023-01-25T05:29:22;102136.31;;;1.78;100.00
11525;BME280;5819;49.648;8.330;2023-01-25T05:31:56;102137.25;;;1.80;100.00
11525;BME280;5819;49.648;8.330;2023-01-25T05:34:25;102130.38;;;1.81;100.00
11525;BME280;5819;49.648;8.330;2023-01-25T05:36:52;102126.50;;;1.61;100.00
11525;BME280;5819;49.648;8.330;2023-01-25T05:39:22;102127.47;;;1.64;100.00
11525;BME280;5819;49.648;8.330;2023-01-25T05:41:52;102130.22;;;1.73;100.00
11525;BME280;5819;49.648;8.330;2023-01-25T05:44:20;102127.53;;;1.67;100.00
11525;BME280;5819;49.648;8.330;2023-01-25T05:46:49;102112.09;;;1.64;100.00
11525;BME280;5819;49.648;8.330;2023-01-25T05:49:18;102125.75;;;1.65;100.00
11525;BME280;5819;49.648;8.330;2023-01-25T05:51:46;102127.47;;;1.66;100.00
11525;BME280;5819;49.648;8.330;2023-01-25T05:54:16;102131.69;;;1.62;100.00
11525;BME280;5819;49.648;8.330;2023-01-25T05:56:53;102124.13;;;1.68;100.00
11525;BME280;5819;49.648;8.330;2023-01-25T05:59:21;102119.09;;;1.73;100.00
11525;BME280;5819;49.648;8.330;2023-01-25T06:01:49;102119.00;;;1.68;100.00
11525;BME280;5819;49.648;8.330;2023-01-25T06:04:19;102118.03;;;1.63;100.00
11525;BME280;5819;49.648;8.330;2023-01-25T06:06:47;102116.25;;;1.61;100.00
11525;BME280;5819;49.648;8.330;2023-01-25T06:09:15;102113.78;;;1.65;100.00
11525;BME280;5819;49.648;8.330;2023-01-25T06:11:44;102121.44;;;1.62;100.00
11525;BME280;5819;49.648;8.330;2023-01-25T06:14:14;102116.16;;;1.56;100.00
11525;BME280;5819;49.648;8.330;2023-01-25T06:16:42;102126.34;;;1.53;100.00
11525;BME280;5819;49.648;8.330;2023-01-25T06:19:44;102117.00;;;1.55;100.00
11525;BME280;5819;49.648;8.330;2023-01-25T06:22:22;102115.31;;;1.57;100.00
11525;BME280;5819;49.648;8.330;2023-01-25T06:24:50;102120.44;;;1.56;100.00
11525;BME280;5819;49.648;8.330;2023-01-25T06:27:17;102114.31;;;1.51;100.00
11525;BME280;5819;49.648;8.330;2023-01-25T06:29:47;102117.81;;;1.54;100.00
11525;BME280;5819;49.648;8.330;2023-01-25T06:32:16;102121.31;;;1.58;100.00
11525;BME280;5819;49.648;8.330;2023-01-25T06:34:43;102130.50;;;1.48;100.00
11525;BME280;5819;49.648;8.330;2023-01-25T06:37:17;102126.44;;;1.58;100.00
11525;BME280;5819;49.648;8.330;2023-01-25T06:39:47;102124.16;;;1.70;100.00
11525;BME280;5819;49.648;8.330;2023-01-25T06:42:18;102125.75;;;1.65;100.00
11525;BME280;5819;49.648;8.330;2023-01-25T06:44:47;102130.25;;;1.75;100.00
11525;BME280;5819;49.648;8.330;2023-01-25T06:47:15;102134.19;;;1.59;100.00
11525;BME280;5819;49.648;8.330;2023-01-25T06:49:42;102123.06;;;1.59;100.00
11525;BME280;5819;49.648;8.330;2023-01-25T06:52:10;102130.69;;;1.57;100.00
11525;BME280;5819;49.648;8.330;2023-01-25T06:54:38;102132.38;;;1.55;100.00
11525;BME280;5819;49.648;8.330;2023-01-25T06:57:06;102126.28;;;1.50;100.00
11525;BME280;5819;49.648;8.330;2023-01-25T06:59:36;102120.44;;;1.57;100.00
11525;BME280;5819;49.648;8.330;2023-01-25T07:02:05;102118.66;;;1.53;100.00
11525;BME280;5819;49.648;8.330;2023-01-25T07:04:33;102121.25;;;1.55;100.00
11525;BME280;5819;49.648;8.330;2023-01-25T07:07:01;102117.00;;;1.55;100.00
11525;BME280;5819;49.648;8.330;2023-01-25T07:09:30;102113.13;;;1.74;100.00
11525;BME280;5819;49.648;8.330;2023-01-25T07:11:57;102125.50;;;1.54;100.00
11525;BME280;5819;49.648;8.330;2023-01-25T07:14:25;102119.56;;;1.55;100.00
11525;BME280;5819;49.648;8.330;2023-01-25T07:16:53;102117.88;;;1.95;100.00
11525;BME280;5819;49.648;8.330;2023-01-25T07:19:22;102123.50;;;1.78;100.00
11525;BME280;5819;49.648;8.330;2023-01-25T07:21:51;102120.44;;;1.57;100.00
11525;BME280;5819;49.648;8.330;2023-01-25T07:24:19;102128.13;;;1.57;100.00
11525;BME280;5819;49.648;8.330;2023-01-25T07:26:47;102119.00;;;1.68;100.00
11525;BME280;5819;49.648;8.330;2023-01-25T07:29:15;102120.53;;;1.60;100.00
11525;BME280;5819;49.648;8.330;2023-01-25T07:31:43;102124.63;;;1.52;100.00
11525;BME280;5819;49.648;8.330;2023-01-25T07:34:11;102116.81;;;1.48;100.00
11525;BME280;5819;49.648;8.330;2023-01-25T07:36:41;102122.91;;;1.53;100.00
11525;BME280;5819;49.648;8.330;2023-01-25T07:39:10;102124.47;;;1.46;100.00
11525;BME280;5819;49.648;8.330;2023-01-25T07:41:39;102125.41;;;1.50;100.00
11525;BME280;5819;49.648;8.330;2023-01-25T07:44:11;102125.50;;;1.54;100.00
11525;BME280;5819;49.648;8.330;2023-01-25T07:46:44;102128.19;;;1.59;100.00
11525;BME280;5819;49.648;8.330;2023-01-25T07:49:11;102127.38;;;1.60;100.00
11525;BME280;5819;49.648;8.330;2023-01-25T07:51:41;102122.81;;;1.48;100.00
11525;BME280;5819;49.648;8.330;2023-01-25T07:54:09;102126.22;;;1.47;100.00
11525;BME280;5819;49.648;8.330;2023-01-25T07:56:38;102133.03;;;1.47;100.00
11525;BME280;5819;49.648;8.330;2023-01-25T07:59:06;102132.97;;;1.45;100.00
11525;BME280;5819;49.648;8.330;2023-01-25T08:01:35;102128.78;;;1.49;100.00
11525;BME280;5819;49.648;8.330;2023-01-25T08:04:04;102124.69;;;1.55;100.00
11525;BME280;5819;49.648;8.330;2023-01-25T08:06:33;102127.25;;;1.57;100.00
11525;BME280;5819;49.648;8.330;2023-01-25T08:09:09;102127.38;;;1.61;100.00
11525;BME280;5819;49.648;8.330;2023-01-25T08:11:38;102123.94;;;1.59;100.00
11525;BME280;5819;49.648;8.330;2023-01-25T08:14:06;102119.56;;;1.57;100.00
11525;BME280;5819;49.648;8.330;2023-01-25T08:16:34;102120.31;;;1.51;100.00
11525;BME280;5819;49.648;8.330;2023-01-25T08:19:03;102115.94;;;1.47;100.00
11525;BME280;5819;49.648;8.330;2023-01-25T08:21:32;102117.88;;;1.57;100.00
11525;BME280;5819;49.648;8.330;2023-01-25T08:24:01;102117.69;;;1.48;100.00
11525;BME280;5819;49.648;8.330;2023-01-25T08:26:32;102116.84;;;1.49;100.00
11525;BME280;5819;49.648;8.330;2023-01-25T08:29:00;102121.94;;;1.48;100.00
11525;BME280;5819;49.648;8.330;2023-01-25T08:31:29;102121.09;;;1.47;100.00
11525;BME280;5819;49.648;8.330;2023-01-25T08:33:58;102122.78;;;1.47;100.00
11525;BME280;5819;49.648;8.330;2023-01-25T08:36:28;102118.75;;;1.58;100.00
11525;BME280;5819;49.648;8.330;2023-01-25T08:38:57;102126.44;;;1.56;100.00
11525;BME280;5819;49.648;8.330;2023-01-25T08:41:26;102122.19;;;1.58;100.00
11525;BME280;5819;49.648;8.330;2023-01-25T08:43:57;102113.88;;;1.68;100.00
11525;BME280;5819;49.648;8.330;2023-01-25T08:46:26;102117.00;;;1.55;100.00
11525;BME280;5819;49.648;8.330;2023-01-25T08:48:58;102107.56;;;1.54;100.00
11525;BME280;5819;49.648;8.330;2023-01-25T08:51:26;102105.06;;;1.57;100.00
11525;BME280;5819;49.648;8.330;2023-01-25T08:53:54;102105.88;;;1.55;100.00
11525;BME280;5819;49.648;8.330;2023-01-25T08:56:22;102099.09;;;1.58;100.00
11525;BME280;5819;49.648;8.330;2023-01-25T08:58:50;102098.50;;;1.70;100.00
11525;BME280;5819;49.648;8.330;2023-01-25T09:01:19;102103.41;;;1.59;100.00
11525;BME280;5819;49.648;8.330;2023-01-25T09:03:48;102095.72;;;1.59;100.00
11525;BME280;5819;49.648;8.330;2023-01-25T09:06:17;102097.75;;;1.74;100.00
11525;BME280;5819;49.648;8.330;2023-01-25T09:08:46;102095.72;;;1.59;100.00
11525;BME280;5819;49.648;8.330;2023-01-25T09:11:18;102089.75;;;1.60;100.00
11525;BME280;5819;49.648;8.330;2023-01-25T09:13:46;102096.41;;;1.52;100.00
11525;BME280;5819;49.648;8.330;2023-01-25T09:16:19;102101.56;;;1.54;100.00
11525;BME280;5819;49.648;8.330;2023-01-25T09:18:57;102096.47;;;1.55;100.00
11525;BME280;5819;49.648;8.330;2023-01-25T09:21:25;102095.63;;;1.55;100.00
11525;BME280;5819;49.648;8.330;2023-01-25T09:23:54;102091.47;;;1.61;100.00
11525;BME280;5819;49.648;8.330;2023-01-25T09:26:32;102095.88;;;1.67;100.00
11525;BME280;5819;49.648;8.330;2023-01-25T09:29:01;102082.56;;;1.83;100.00
11525;BME280;5819;49.648;8.330;2023-01-25T09:31:29;102094.41;;;1.76;100.00
11525;BME280;5819;49.648;8.330;2023-01-25T09:34:12;102091.69;;;1.70;100.00
11525;BME280;5819;49.648;8.330;2023-01-25T09:36:41;102094.13;;;1.64;100.00
11525;BME280;5819;49.648;8.330;2023-01-25T09:39:10;102096.53;;;1.58;100.00
11525;BME280;5819;49.648;8.330;2023-01-25T09:41:59;102096.59;;;1.60;100.00
11525;BME280;5819;49.648;8.330;2023-01-25T09:44:51;102095.16;;;1.72;100.00
11525;BME280;5819;49.648;8.330;2023-01-25T09:47:28;102089.94;;;1.69;100.00
11525;BME280;5819;49.648;8.330;2023-01-25T09:50:21;102090.72;;;1.65;100.00
11525;BME280;5819;49.648;8.330;2023-01-25T09:53:06;102083.06;;;1.67;100.00
11525;BME280;5819;49.648;8.330;2023-01-25T09:55:39;102082.66;;;1.89;100.00
11525;BME280;5819;49.648;8.330;2023-01-25T09:58:12;102082.44;;;1.78;100.00
11525;BME280;5819;49.648;8.330;2023-01-25T10:00:43;102089.81;;;1.63;100.00
11525;BME280;5819;49.648;8.330;2023-01-25T10:03:20;102083.81;;;1.63;100.00
11525;BME280;5819;49.648;8.330;2023-01-25T10:05:52;102082.91;;;1.61;100.00
11525;BME280;5819;49.648;8.330;2023-01-25T10:08:26;102073.50;;;1.60;100.00
11525;BME280;5819;49.648;8.330;2023-01-25T10:10:59;102079.50;;;1.60;100.00
11525;BME280;5819;49.648;8.330;2023-01-25T10:13:31;102070.84;;;1.55;100.00
11525;BME280;5819;49.648;8.330;2023-01-25T10:16:02;102067.88;;;1.77;100.00
11525;BME280;5819;49.648;8.330;2023-01-25T10:18:36;102066.84;;;1.69;100.00
11525;BME280;5819;49.648;8.330;2023-01-25T10:21:11;102066.75;;;1.63;100.00
11525;BME280;5819;49.648;8.330;2023-01-25T10:24:00;102066.63;;;1.59;100.00
11525;BME280;5819;49.648;8.330;2023-01-25T10:26:32;102059.16;;;1.69;100.00
11525;BME280;5819;49.648;8.330;2023-01-25T10:29:06;102063.50;;;1.72;100.00
11525;BME280;5819;49.648;8.330;2023-01-25T10:31:41;102063.47;;;1.70;100.00
11525;BME280;5819;49.648;8.330;2023-01-25T10:34:16;102060.09;;;1.71;100.00
11525;BME280;5819;49.648;8.330;2023-01-25T10:36:51;102054.03;;;1.69;100.00
11525;BME280;5819;49.648;8.330;2023-01-25T10:39:21;102052.28;;;1.67;100.00
11525;BME280;5819;49.648;8.330;2023-01-25T10:41:52;102045.47;;;1.67;100.00
11525;BME280;5819;49.648;8.330;2023-01-25T10:44:23;102038.03;;;1.79;100.00
11525;BME280;5819;49.648;8.330;2023-01-25T10:46:56;102030.34;;;1.81;100.00
11525;BME280;5819;49.648;8.330;2023-01-25T10:49:37;102025.81;;;1.69;100.00
11525;BME280;5819;49.648;8.330;2023-01-25T10:52:13;102025.00;;;1.70;100.00
11525;BME280;5819;49.648;8.330;2023-01-25T10:54:41;102016.59;;;1.77;100.00
11525;BME280;5819;49.648;8.330;2023-01-25T10:57:14;102023.59;;;1.86;100.00
11525;BME280;5819;49.648;8.330;2023-01-25T10:59:44;102007.25;;;1.79;100.00
11525;BME280;5819;49.648;8.330;2023-01-25T11:02:39;102014.97;;;1.82;100.00
11525;BME280;5819;49.648;8.330;2023-01-25T11:05:32;102004.53;;;1.73;100.00
11525;BME280;5819;49.648;8.330;2023-01-25T11:08:23;102000.19;;;1.69;100.00
11525;BME280;5819;49.648;8.330;2023-01-25T11:10:52;101994.94;;;1.65;100.00
11525;BME280;5819;49.648;8.330;2023-01-25T11:13:24;101985.88;;;1.80;100.00
11525;BME280;5819;49.648;8.330;2023-01-25T11:15:54;101989.78;;;1.62;100.00
11525;BME280;5819;49.648;8.330;2023-01-25T11:18:48;101979.50;;;1.62;100.00
11525;BME280;5819;49.648;8.330;2023-01-25T11:21:18;101970.06;;;1.59;100.00
11525;BME280;5819;49.648;8.330;2023-01-25T11:24:08;101967.56;;;1.62;100.00
11525;BME280;5819;49.648;8.330;2023-01-25T11:26:41;101962.56;;;1.68;100.00
11525;BME280;5819;49.648;8.330;2023-01-25T11:29:14;101958.13;;;1.60;100.00
11525;BME280;5819;49.648;8.330;2023-01-25T11:31:44;101959.81;;;1.59;100.00
11525;BME280;5819;49.648;8.330;2023-01-25T11:34:14;101958.16;;;1.63;100.00
11525;BME280;5819;49.648;8.330;2023-01-25T11:37:08;101950.53;;;1.64;100.00
11525;BME280;5819;49.648;8.330;2023-01-25T11:39:51;101944.53;;;1.65;100.00
11525;BME280;5819;49.648;8.330;2023-01-25T11:42:28;101940.03;;;1.52;100.00
11525;BME280;5819;49.648;8.330;2023-01-25T11:45:23;101935.81;;;1.57;100.00
11525;BME280;5819;49.648;8.330;2023-01-25T11:48:11;101932.63;;;1.67;100.00
11525;BME280;5819;49.648;8.330;2023-01-25T11:50:44;101929.72;;;1.96;100.00
11525;BME280;5819;49.648;8.330;2023-01-25T11:53:24;101919.28;;;1.86;100.00
11525;BME280;5819;49.648;8.330;2023-01-25T11:56:06;101921.59;;;1.71;100.00
11525;BME280;5819;49.648;8.330;2023-01-25T12:01:36;101913.72;;;1.62;100.00
11525;BME280;5819;49.648;8.330;2023-01-25T12:04:24;101911.03;;;1.56;100.00
11525;BME280;5819;49.648;8.330;2023-01-25T12:07:01;101904.38;;;1.66;100.00
11525;BME280;5819;49.648;8.330;2023-01-25T12:09:48;101894.94;;;1.65;100.00
11525;BME280;5819;49.648;8.330;2023-01-25T12:12:36;101895.03;;;1.69;100.00
11525;BME280;5819;49.648;8.330;2023-01-25T12:15:24;101895.19;;;1.78;100.00
11525;BME280;5819;49.648;8.330;2023-01-25T12:21:03;101883.81;;;1.63;100.00
11525;BME280;5819;49.648;8.330;2023-01-25T12:23:54;101866.78;;;1.66;100.00
11525;BME280;5819;49.648;8.330;2023-01-25T12:26:27;101853.03;;;1.63;100.00
11525;BME280;5819;49.648;8.330;2023-01-25T12:29:04;101849.59;;;1.62;100.00
11525;BME280;5819;49.648;8.330;2023-01-25T12:31:41;101841.81;;;1.58;100.00
11525;BME280;5819;49.648;8.330;2023-01-25T12:34:17;101840.94;;;1.57;100.00
11525;BME280;5819;49.648;8.330;2023-01-25T12:36:47;101830.38;;;1.87;100.00
11525;BME280;5819;49.648;8.330;2023-01-25T12:39:19;101821.56;;;1.71;100.00
11525;BME280;5819;49.648;8.330;2023-01-25T12:41:52;101825.78;;;1.68;100.00
11525;BME280;5819;49.648;8.330;2023-01-25T12:44:26;101820.47;;;1.59;100.00
11525;BME280;5819;49.648;8.330;2023-01-25T12:47:04;101817.09;;;1.60;100.00
11525;BME280;5819;49.648;8.330;2023-01-25T12:49:43;101806.91;;;1.64;100.00
11525;BME280;5819;49.648;8.330;2023-01-25T12:52:19;101800.13;;;1.68;100.00
11525;BME280;5819;49.648;8.330;2023-01-25T12:54:50;101794.88;;;1.62;100.00
11525;BME280;5819;49.648;8.330;2023-01-25T12:57:21;101793.13;;;1.59;100.00
11525;BME280;5819;49.648;8.330;2023-01-25T12:59:59;101790.66;;;1.64;100.00
11525;BME280;5819;49.648;8.330;2023-01-25T13:02:53;101785.41;;;1.58;100.00
11525;BME280;5819;49.648;8.330;2023-01-25T13:05:28;101788.75;;;1.52;100.00
11525;BME280;5819;49.648;8.330;2023-01-25T13:08:12;101784.56;;;1.59;100.00
11525;BME280;5819;49.648;8.330;2023-01-25T13:11:09;101784.00;;;1.75;100.00
11525;BME280;5819;49.648;8.330;2023-01-25T13:13:38;101780.09;;;1.98;100.00
11525;BME280;5819;49.648;8.330;2023-01-25T13:16:23;101783.09;;;1.73;100.00
11525;BME280;5819;49.648;8.330;2023-01-25T13:18:51;101786.41;;;1.66;100.00
11525;BME280;5819;49.648;8.330;2023-01-25T13:21:41;101787.09;;;1.57;100.00
11525;BME280;5819;49.648;8.330;2023-01-25T13:24:19;101787.03;;;1.53;100.00
11525;BME280;5819;49.648;8.330;2023-01-25T13:27:03;101784.50;;;1.54;100.00
11525;BME280;5819;49.648;8.330;2023-01-25T13:29:56;101779.41;;;1.57;100.00
11525;BME280;5819;49.648;8.330;2023-01-25T13:32:53;101777.75;;;1.59;100.00
11525;BME280;5819;49.648;8.330;2023-01-25T13:35:30;101765.97;;;1.70;100.00
11525;BME280;5819;49.648;8.330;2023-01-25T13:38:02;101762.28;;;1.55;100.00
11525;BME280;5819;49.648;8.330;2023-01-25T13:40:33;101752.13;;;1.59;100.00
11525;BME280;5819;49.648;8.330;2023-01-25T13:43:03;101743.03;;;1.81;100.00
11525;BME280;5819;49.648;8.330;2023-01-25T13:45:34;101734.41;;;1.74;100.00
11525;BME280;5819;49.648;8.330;2023-01-25T13:48:11;101724.78;;;1.61;100.00
11525;BME280;5819;49.648;8.330;2023-01-25T13:50:44;101722.09;;;1.54;100.00
11525;BME280;5819;49.648;8.330;2023-01-25T13:53:19;101720.25;;;1.45;100.00
11525;BME280;5819;49.648;8.330;2023-01-25T13:55:48;101721.97;;;1.46;100.00